Time;durP1;ratioP1;P1;durP2;ratioP2;P2;SDS_P1;SDS_P2;PMS_P1;PMS_P2;Temp;Humidity;BMP_temperature;BMP_pressure;BME280_temperature;BME280_humidity;BME280_pressure;Samples;Min_cycle;Max_cycle;Signal;HPM_P1;HPM_P2
2022/11/06 00:00:25;;;;;;;8.98;1.60;;;24.60;99.90;;;;;;5101452;28;21542;-77
2022/11/06 00:02:58;;;;;;;5.65;1.70;;;24.50;99.90;;;;;;5097089;28;20198;-76
2022/11/06 00:08:17;;;;;;;7.88;1.60;;;24.50;99.90;;;;;;5108816;28;20613;-76
2022/11/06 00:10:50;;;;;;;4.70;1.40;;;24.40;99.90;;;;;;5107412;28;20282;-76
2022/11/06 00:13:21;;;;;;;6.55;1.67;;;24.50;99.90;;;;;;5100503;28;20621;-77
2022/11/06 00:15:52;;;;;;;3.80;1.10;;;24.60;99.90;;;;;;5076157;28;20203;-76
2022/11/06 00:18:23;;;;;;;7.35;1.60;;;24.60;99.90;;;;;;5060291;28;20219;-76
2022/11/06 00:20:54;;;;;;;2.90;1.20;;;24.50;99.90;;;;;;5056077;28;20199;-78
2022/11/06 00:23:26;;;;;;;6.40;1.48;;;24.70;99.90;;;;;;5058442;28;22571;-75
2022/11/06 00:25:58;;;;;;;4.95;1.20;;;24.80;99.90;;;;;;5058799;28;20213;-75
2022/11/06 00:28:29;;;;;;;4.05;1.00;;;24.70;99.90;;;;;;5058217;28;20234;-75
2022/11/06 00:31:05;;;;;;;4.10;1.10;;;24.70;99.90;;;;;;5073657;28;20195;-76
2022/11/06 00:33:36;;;;;;;4.88;1.20;;;24.70;99.90;;;;;;5085946;28;20198;-76
2022/11/06 00:36:08;;;;;;;4.75;1.33;;;24.70;99.90;;;;;;5074975;28;20192;-76
2022/11/06 00:38:38;;;;;;;3.10;1.05;;;24.70;99.90;;;;;;5084265;28;20200;-76
2022/11/06 00:41:13;;;;;;;5.35;0.93;;;24.60;99.90;;;;;;5080364;28;20693;-76
2022/11/06 00:43:44;;;;;;;2.72;1.00;;;24.60;99.90;;;;;;5083124;28;20230;-75
2022/11/06 00:46:16;;;;;;;4.13;1.08;;;24.60;99.90;;;;;;5093059;28;20205;-72
2022/11/06 00:48:47;;;;;;;6.25;1.10;;;24.50;99.90;;;;;;5083797;28;20219;-75
2022/11/06 00:51:20;;;;;;;8.00;1.40;;;24.60;99.90;;;;;;5084973;28;20707;-75
2022/11/06 00:53:54;;;;;;;2.50;1.10;;;24.60;99.90;;;;;;5088567;28;20195;-75
2022/11/06 00:56:28;;;;;;;5.28;1.05;;;24.50;99.90;;;;;;5089199;28;20199;-76
2022/11/06 00:59:01;;;;;;;4.85;0.98;;;24.50;99.90;;;;;;5088031;28;20204;-75
2022/11/06 01:01:33;;;;;;;6.55;0.98;;;24.40;99.90;;;;;;5078498;28;20202;-76
2022/11/06 01:04:05;;;;;;;2.30;0.90;;;24.20;99.90;;;;;;5089464;28;20202;-76
2022/11/06 01:06:39;;;;;;;5.47;1.30;;;24.30;99.90;;;;;;5085754;28;20222;-75
2022/11/06 01:09:10;;;;;;;6.18;1.13;;;24.30;99.90;;;;;;5088025;28;20229;-74
2022/11/06 01:11:45;;;;;;;5.90;1.50;;;24.40;99.90;;;;;;5092910;28;20657;-76
2022/11/06 01:14:17;;;;;;;5.82;1.20;;;24.30;99.90;;;;;;5091520;28;20236;-75
2022/11/06 01:16:48;;;;;;;2.08;0.80;;;24.30;99.90;;;;;;5101387;28;20203;-76
2022/11/06 01:19:20;;;;;;;3.30;0.90;;;24.30;99.90;;;;;;5111595;28;20221;-75
2022/11/06 01:21:54;;;;;;;4.00;0.95;;;24.50;99.90;;;;;;5108130;28;20289;-78
2022/11/06 01:24:26;;;;;;;5.10;0.82;;;24.70;99.90;;;;;;5104487;28;20683;-78
2022/11/06 01:26:59;;;;;;;3.85;0.90;;;24.70;99.90;;;;;;5114474;27;20217;-76
2022/11/06 01:29:30;;;;;;;3.97;0.80;;;24.70;99.90;;;;;;5105698;28;20241;-77
2022/11/06 01:32:01;;;;;;;3.50;1.00;;;24.50;99.90;;;;;;5111274;28;20274;-77
2022/11/06 01:34:32;;;;;;;7.43;0.95;;;24.50;99.90;;;;;;5108667;28;20227;-77
2022/11/06 01:37:02;;;;;;;3.10;0.80;;;24.70;99.90;;;;;;5104523;28;20241;-77
2022/11/06 01:39:33;;;;;;;5.45;0.90;;;24.70;99.90;;;;;;5109337;28;20270;-76
2022/11/06 01:42:07;;;;;;;2.90;0.90;;;24.80;99.90;;;;;;5111836;28;20198;-77
2022/11/06 01:45:16;;;;;;;5.63;1.08;;;24.80;99.90;;;;;;5113745;27;20191;-78
2022/11/06 01:47:47;;;;;;;3.80;0.88;;;24.70;99.90;;;;;;5103039;28;20229;-76
2022/11/06 01:50:19;;;;;;;5.43;1.08;;;24.80;99.90;;;;;;5111558;28;20263;-76
2022/11/06 01:52:52;;;;;;;3.70;1.00;;;24.70;99.90;;;;;;5094680;28;20196;-76
2022/11/06 01:55:26;;;;;;;4.57;1.02;;;24.90;99.90;;;;;;5113588;28;20195;-77
2022/11/06 01:58:02;;;;;;;2.60;0.70;;;25.10;99.90;;;;;;5104831;28;20214;-75
2022/11/06 02:00:32;;;;;;;5.70;0.88;;;25.10;99.90;;;;;;5121984;27;20190;-75
2022/11/06 02:03:04;;;;;;;2.00;0.70;;;25.10;99.90;;;;;;5124820;27;20693;-76
2022/11/06 04:23:39;;;;;;;6.57;0.95;;;25.40;99.90;;;;;;5098054;27;20560;-77
2022/11/06 04:26:35;;;;;;;2.92;0.70;;;25.90;99.90;;;;;;5079074;28;20287;-76
2022/11/06 04:29:14;;;;;;;5.10;0.73;;;26.30;99.90;;;;;;5075107;28;20228;-77
2022/11/06 04:31:52;;;;;;;2.95;0.68;;;26.70;99.90;;;;;;5073590;28;20207;-78
2022/11/06 04:34:28;;;;;;;3.72;0.77;;;27.00;99.90;;;;;;5079788;28;20646;-78
2022/11/06 04:37:07;;;;;;;3.30;0.90;;;27.00;99.90;;;;;;5073920;28;20223;-78
2022/11/06 04:39:45;;;;;;;4.30;0.80;;;27.20;99.90;;;;;;5075391;28;20700;-78
2022/11/06 04:42:25;;;;;;;2.60;0.80;;;27.30;99.90;;;;;;5075454;28;20693;-78
2022/11/06 04:45:02;;;;;;;3.95;0.88;;;27.10;99.90;;;;;;5086665;28;20180;-78
2022/11/06 04:47:35;;;;;;;5.53;0.90;;;26.50;99.90;;;;;;5087587;28;20199;-78
2022/11/06 04:50:07;;;;;;;3.83;1.00;;;26.70;99.90;;;;;;5081721;28;20206;-78
2022/11/06 04:52:40;;;;;;;3.95;0.70;;;26.90;99.90;;;;;;5073893;28;20201;-78
2022/11/06 04:55:14;;;;;;;4.80;1.02;;;26.70;99.90;;;;;;5086925;28;20196;-76
2022/11/06 04:57:44;;;;;;;3.45;1.00;;;26.70;99.90;;;;;;5079997;28;20333;-77
2022/11/06 05:00:17;;;;;;;6.03;1.00;;;26.90;99.90;;;;;;5100491;28;20219;-77
2022/11/06 05:02:47;;;;;;;4.75;1.23;;;26.90;99.90;;;;;;5086229;28;20322;-77
2022/11/06 05:05:18;;;;;;;2.72;1.00;;;27.00;99.90;;;;;;5066670;28;20637;-78
2022/11/06 05:07:49;;;;;;;4.00;1.10;;;27.10;99.90;;;;;;5067293;28;20206;-78
2022/11/06 05:10:22;;;;;;;4.10;1.50;;;27.00;99.90;;;;;;5079464;28;20222;-78
2022/11/06 05:12:52;;;;;;;4.63;1.20;;;26.90;99.90;;;;;;5079180;28;20196;-77
2022/11/06 05:15:23;;;;;;;3.00;1.20;;;27.00;99.90;;;;;;5081482;28;20200;-77
2022/11/06 05:17:54;;;;;;;4.28;1.17;;;27.40;99.90;;;;;;5082817;28;20206;-76
2022/11/06 05:20:25;;;;;;;3.80;1.13;;;27.40;99.90;;;;;;5071312;28;20200;-77
2022/11/06 05:23:00;;;;;;;4.72;0.90;;;27.40;99.90;;;;;;5071831;28;20239;-77
2022/11/06 05:25:34;;;;;;;4.30;1.00;;;27.30;99.90;;;;;;5075737;28;20593;-77
2022/11/06 05:28:06;;;;;;;5.88;0.98;;;27.50;99.90;;;;;;5072872;28;20194;-76
2022/11/06 05:30:38;;;;;;;7.03;0.95;;;27.50;99.90;;;;;;5088581;28;20196;-78
2022/11/06 05:33:10;;;;;;;2.92;0.80;;;27.60;99.90;;;;;;5083828;28;20219;-78
2022/11/06 05:35:41;;;;;;;4.30;0.85;;;27.70;99.90;;;;;;5066475;28;20244;-76
2022/11/06 05:38:12;;;;;;;3.58;1.00;;;27.70;99.90;;;;;;5053465;28;20242;-77
2022/11/06 05:40:45;;;;;;;4.10;1.20;;;27.80;99.90;;;;;;5060623;28;20650;-73
2022/11/06 05:43:16;;;;;;;4.03;0.98;;;28.00;99.90;;;;;;5064161;28;20220;-77
2022/11/06 05:45:47;;;;;;;5.32;0.93;;;27.80;99.90;;;;;;5053559;28;20211;-77
2022/11/06 05:48:18;;;;;;;2.15;0.90;;;28.20;99.90;;;;;;5053227;28;20571;-78
2022/11/06 05:50:49;;;;;;;5.22;0.90;;;28.30;99.90;;;;;;5052760;28;20196;-77
2022/11/06 05:53:20;;;;;;;3.67;1.13;;;28.60;99.90;;;;;;5052632;28;20223;-76
2022/11/06 05:55:54;;;;;;;1.80;0.70;;;29.10;99.90;;;;;;5052264;28;20224;-77
2022/11/06 05:58:24;;;;;;;4.45;0.88;;;29.20;99.90;;;;;;5069683;28;20217;-77
2022/11/06 06:00:56;;;;;;;2.88;0.82;;;29.00;99.90;;;;;;5058478;28;20216;-77
2022/11/06 06:03:27;;;;;;;5.15;0.82;;;29.30;99.90;;;;;;5077906;28;20220;-77
2022/11/06 06:05:58;;;;;;;5.25;0.95;;;29.10;99.90;;;;;;5052327;28;20283;-77
2022/11/06 06:08:29;;;;;;;4.10;0.85;;;28.90;99.90;;;;;;5053583;28;20211;-77
2022/11/06 06:11:02;;;;;;;2.63;0.70;;;29.10;99.90;;;;;;5057272;28;20271;-77
2022/11/06 06:13:32;;;;;;;3.17;0.77;;;29.00;99.90;;;;;;5057478;28;20210;-77
2022/11/06 06:16:05;;;;;;;3.88;0.80;;;28.90;99.90;;;;;;5071232;28;20193;-78
2022/11/06 06:18:36;;;;;;;2.35;0.90;;;28.90;99.90;;;;;;5055900;28;20307;-78
2022/11/06 06:21:07;;;;;;;3.70;0.88;;;29.00;99.90;;;;;;5059037;28;20714;-80
2022/11/06 06:23:38;;;;;;;3.13;0.65;;;28.70;99.90;;;;;;5055562;28;20220;-78
2022/11/06 06:26:11;;;;;;;4.65;0.90;;;28.90;99.90;;;;;;5054987;28;20279;-77
2022/11/06 06:28:42;;;;;;;4.63;0.90;;;28.60;99.90;;;;;;5052083;28;20215;-77
2022/11/06 06:31:13;;;;;;;3.75;0.90;;;28.30;99.90;;;;;;5052144;28;20224;-79
2022/11/06 06:33:44;;;;;;;4.13;0.70;;;28.00;99.90;;;;;;5056612;28;20278;-78
2022/11/06 06:36:15;;;;;;;4.00;0.93;;;28.10;99.90;;;;;;5063359;28;20196;-77
2022/11/06 06:38:46;;;;;;;3.15;0.70;;;28.40;99.90;;;;;;5068055;28;20192;-77
2022/11/06 06:41:18;;;;;;;3.92;0.75;;;28.60;99.90;;;;;;5062885;28;20651;-77
2022/11/06 06:43:51;;;;;;;2.92;0.98;;;28.90;99.90;;;;;;5061695;28;20246;-77
2022/11/06 06:46:22;;;;;;;3.70;0.90;;;28.70;99.90;;;;;;5070744;28;20203;-77
2022/11/06 06:48:53;;;;;;;3.97;0.80;;;28.50;99.80;;;;;;5062339;28;20204;-77
2022/11/06 06:51:24;;;;;;;2.97;0.93;;;28.20;99.90;;;;;;5069102;28;20196;-76
2022/11/06 06:53:55;;;;;;;5.40;1.00;;;27.90;99.90;;;;;;5072173;28;20192;-77
2022/11/06 06:56:27;;;;;;;4.97;0.90;;;27.40;99.90;;;;;;5064807;28;20196;-78
2022/11/06 06:58:58;;;;;;;3.03;0.70;;;27.60;99.90;;;;;;5067725;28;20222;-77
2022/11/06 07:01:29;;;;;;;5.43;1.08;;;27.90;99.90;;;;;;5054687;28;20211;-77
2022/11/06 07:04:00;;;;;;;3.53;0.90;;;28.00;99.90;;;;;;5061366;28;20226;-77
2022/11/06 07:06:30;;;;;;;2.63;0.60;;;28.00;99.90;;;;;;5058002;28;20211;-77
2022/11/06 07:09:01;;;;;;;3.20;0.70;;;27.60;99.90;;;;;;5054971;28;20196;-77
2022/11/06 07:11:34;;;;;;;2.70;0.80;;;27.70;99.90;;;;;;5051281;28;20197;-77
2022/11/06 07:14:05;;;;;;;4.53;0.93;;;27.60;99.90;;;;;;5051348;28;20268;-78
2022/11/06 07:16:35;;;;;;;5.47;1.20;;;27.10;99.90;;;;;;5051488;28;20197;-78
2022/11/06 07:19:06;;;;;;;5.00;1.10;;;26.60;99.90;;;;;;5051404;28;20201;-78
2022/11/06 07:21:38;;;;;;;4.45;1.00;;;26.10;99.90;;;;;;5051556;28;20236;-78
2022/11/06 07:24:09;;;;;;;4.38;1.40;;;25.80;99.90;;;;;;5051078;28;20763;-78
2022/11/06 07:26:41;;;;;;;3.42;1.30;;;25.50;99.90;;;;;;5050912;28;20200;-78
2022/11/06 07:29:12;;;;;;;2.58;0.98;;;25.30;99.90;;;;;;5050434;28;20199;-78
2022/11/06 07:31:43;;;;;;;7.43;1.02;;;25.20;99.90;;;;;;5065795;28;20220;-78
2022/11/06 07:34:14;;;;;;;4.57;0.85;;;24.60;99.90;;;;;;5070751;28;20208;-78
2022/11/06 07:36:45;;;;;;;3.47;0.90;;;24.40;99.90;;;;;;5070877;28;20658;-77
2022/11/06 07:39:15;;;;;;;2.63;0.70;;;24.20;99.90;;;;;;5069062;28;20307;-78
2022/11/06 07:41:48;;;;;;;4.78;1.08;;;23.80;99.90;;;;;;5070041;28;20677;-77
2022/11/06 07:44:19;;;;;;;2.80;0.80;;;23.60;99.90;;;;;;5070391;28;20231;-78
2022/11/06 07:46:50;;;;;;;4.88;1.20;;;23.50;99.90;;;;;;5064117;28;20208;-77
2022/11/06 07:49:21;;;;;;;2.88;1.00;;;23.50;99.90;;;;;;5050646;28;20203;-77
2022/11/06 07:51:52;;;;;;;4.82;0.80;;;23.30;99.90;;;;;;5050921;28;20681;-78
2022/11/06 07:54:23;;;;;;;4.40;0.90;;;23.30;99.90;;;;;;5054060;28;20239;-78
2022/11/06 07:56:56;;;;;;;3.95;0.98;;;23.10;99.90;;;;;;5051023;28;20215;-78
2022/11/06 07:59:28;;;;;;;3.97;1.10;;;23.10;99.90;;;;;;5050448;28;20193;-78
2022/11/06 08:01:58;;;;;;;2.85;0.77;;;23.00;99.90;;;;;;5050453;28;20227;-78
2022/11/06 08:04:29;;;;;;;4.07;0.88;;;22.80;99.90;;;;;;5050591;28;20309;-78
2022/11/06 08:07:01;;;;;;;4.95;0.98;;;22.70;99.90;;;;;;5050667;28;20196;-78
2022/11/06 08:09:31;;;;;;;3.90;1.02;;;22.70;99.90;;;;;;5053044;28;20254;-78
2022/11/06 08:12:04;;;;;;;4.80;1.40;;;22.50;99.90;;;;;;5050417;28;20201;-78
2022/11/06 08:14:35;;;;;;;3.78;1.27;;;22.60;99.90;;;;;;5059979;28;20295;-78
2022/11/06 08:17:06;;;;;;;5.40;1.30;;;22.50;99.90;;;;;;5070562;28;20202;-78
2022/11/06 08:19:40;;;;;;;2.78;1.10;;;22.40;99.90;;;;;;5069537;28;20263;-78
2022/11/06 08:22:11;;;;;;;4.80;1.10;;;22.40;99.90;;;;;;5070089;28;20235;-78
2022/11/06 08:24:42;;;;;;;4.47;1.00;;;22.30;99.90;;;;;;5062019;28;20202;-77
2022/11/06 08:27:15;;;;;;;5.65;1.00;;;22.30;99.90;;;;;;5069310;28;20225;-77
2022/11/06 08:29:45;;;;;;;5.00;1.30;;;22.20;99.90;;;;;;5070181;28;20659;-77
2022/11/06 08:32:16;;;;;;;3.67;1.00;;;22.00;99.90;;;;;;5066541;28;20212;-78
2022/11/06 08:34:47;;;;;;;4.07;1.00;;;22.00;99.90;;;;;;5070169;28;20200;-77
2022/11/06 08:37:19;;;;;;;3.38;1.10;;;22.00;99.90;;;;;;5060965;28;20295;-77
2022/11/06 08:39:50;;;;;;;2.83;1.00;;;22.10;99.90;;;;;;5067336;28;20200;-77
2022/11/06 08:42:25;;;;;;;5.00;1.08;;;22.10;99.90;;;;;;5072283;28;20199;-77
2022/11/06 08:44:57;;;;;;;6.75;1.08;;;22.10;99.90;;;;;;5081652;28;20195;-77
2022/11/06 08:47:28;;;;;;;3.20;0.90;;;22.00;99.90;;;;;;5080267;28;20196;-76
2022/11/06 08:49:59;;;;;;;3.88;0.95;;;22.00;99.90;;;;;;5058897;28;20216;-76
2022/11/06 08:52:38;;;;;;;4.38;1.15;;;22.00;99.90;;;;;;5060018;28;20185;-80
2022/11/06 08:55:18;;;;;;;3.45;1.00;;;22.00;99.90;;;;;;5065502;28;20254;-77
2022/11/06 08:58:28;;;;;;;8.63;1.00;;;21.90;99.90;;;;;;5066270;28;20199;-78
2022/11/06 09:01:07;;;;;;;3.15;0.95;;;21.70;99.90;;;;;;5074787;28;20196;-76
2022/11/06 09:03:38;;;;;;;4.38;1.02;;;21.70;99.90;;;;;;5059981;28;20231;-79
2022/11/06 09:06:15;;;;;;;4.57;1.00;;;21.70;99.90;;;;;;5075674;28;20228;-78
2022/11/06 09:08:49;;;;;;;5.63;1.33;;;21.70;99.90;;;;;;5079828;28;20200;-76
2022/11/06 09:11:20;;;;;;;3.83;1.10;;;21.60;99.90;;;;;;5078784;28;20200;-75
2022/11/06 09:14:03;;;;;;;4.85;1.05;;;21.60;99.90;;;;;;5093218;28;20251;-79
2022/11/06 09:16:37;;;;;;;3.78;0.90;;;21.60;99.90;;;;;;5087411;28;20271;-78
2022/11/06 09:19:12;;;;;;;5.80;1.00;;;21.60;99.90;;;;;;5071420;28;20247;-77
2022/11/06 09:21:47;;;;;;;3.95;0.90;;;21.60;99.90;;;;;;5066012;28;20310;-77
2022/11/06 09:24:17;;;;;;;2.63;0.80;;;21.60;99.90;;;;;;5067473;28;20259;-78
2022/11/06 09:26:51;;;;;;;4.43;1.08;;;21.60;99.90;;;;;;5067188;28;20197;-77
2022/11/06 09:29:42;;;;;;;3.55;1.02;;;21.60;99.90;;;;;;5085859;28;20199;-78
2022/11/06 09:34:57;;;;;;;6.22;1.40;;;21.60;99.90;;;;;;5078650;28;20203;-76
2022/11/06 09:37:45;;;;;;;2.15;0.70;;;21.40;99.90;;;;;;5078699;28;20192;-79
2022/11/06 09:41:00;;;;;;;6.03;1.20;;;21.40;99.90;;;;;;5085791;28;20200;-81
2022/11/06 09:44:02;;;;;;;5.40;0.88;;;21.50;99.90;;;;;;5103131;28;20229;-79
2022/11/06 09:49:59;;;;;;;6.20;0.98;;;21.40;99.90;;;;;;5112311;28;20233;-78
2022/11/06 09:52:46;;;;;;;5.20;1.02;;;21.40;99.90;;;;;;5113587;28;20199;-79
2022/11/06 09:55:21;;;;;;;3.17;0.77;;;21.40;99.90;;;;;;5070899;28;20248;-78
2022/11/06 09:58:08;;;;;;;7.15;1.10;;;21.40;99.90;;;;;;5084767;28;20248;-78
2022/11/06 10:00:56;;;;;;;4.13;1.00;;;21.40;99.90;;;;;;5086109;28;20631;-78
2022/11/06 10:03:42;;;;;;;4.35;1.20;;;21.40;99.90;;;;;;5083486;28;20222;-76
2022/11/06 10:06:28;;;;;;;3.00;0.88;;;21.20;99.90;;;;;;5087262;28;20216;-77
2022/11/06 10:09:16;;;;;;;4.75;0.82;;;21.20;99.90;;;;;;5087494;28;20293;-79
2022/11/06 10:11:59;;;;;;;5.30;1.17;;;21.20;99.90;;;;;;5094179;28;20210;-76
2022/11/06 10:15:00;;;;;;;4.68;0.75;;;21.20;99.90;;;;;;5064962;28;20230;-80
2022/11/06 10:17:45;;;;;;;3.92;0.75;;;21.10;99.90;;;;;;5061422;28;20211;-78
2022/11/06 10:20:21;;;;;;;3.47;0.90;;;21.20;99.90;;;;;;5057414;28;20227;-78
2022/11/06 10:26:11;;;;;;;5.30;0.90;;;21.20;99.90;;;;;;5070577;28;20304;-77
2022/11/06 10:35:06;;;;;;;4.40;1.10;;;21.20;99.90;;;;;;5068513;28;20220;-78
2022/11/06 10:38:13;;;;;;;2.70;0.88;;;21.20;99.90;;;;;;5065201;28;20266;-79
2022/11/06 10:40:52;;;;;;;3.85;1.05;;;21.20;99.90;;;;;;5084838;28;20700;-78
2022/11/06 10:43:31;;;;;;;4.35;0.82;;;21.10;99.90;;;;;;5084369;28;20187;-78
2022/11/06 10:46:13;;;;;;;6.78;0.90;;;21.10;99.90;;;;;;5086589;28;20192;-77
2022/11/06 10:48:59;;;;;;;4.18;0.90;;;21.10;99.90;;;;;;5070910;28;20185;-77
2022/11/06 10:52:12;;;;;;;1.50;0.55;;;21.10;99.90;;;;;;5082286;28;20202;-77
2022/11/06 10:57:48;;;;;;;2.90;0.90;;;21.10;99.90;;;;;;5063392;28;20257;-77
2022/11/06 11:00:20;;;;;;;3.92;0.80;;;21.00;99.90;;;;;;5070305;28;20194;-75
2022/11/06 11:03:01;;;;;;;3.97;0.95;;;21.00;99.90;;;;;;5065817;28;20207;-76
2022/11/06 11:05:40;;;;;;;4.47;0.93;;;21.00;99.90;;;;;;5053763;28;20202;-77
2022/11/06 11:08:41;;;;;;;3.08;1.00;;;21.00;99.90;;;;;;5072691;28;20229;-79
2022/11/06 11:14:31;;;;;;;2.88;0.65;;;21.00;99.90;;;;;;5063235;22;20224;-77
2022/11/06 11:20:13;;;;;;;5.10;0.95;;;21.00;99.90;;;;;;5034975;28;20185;-81
2022/11/06 11:23:42;;;;;;;4.80;0.82;;;21.10;99.90;;;;;;5025843;28;20227;-79
2022/11/06 11:26:22;;;;;;;5.35;1.00;;;21.00;99.90;;;;;;5039383;28;20189;-77
2022/11/06 11:29:00;;;;;;;5.43;1.00;;;21.00;99.90;;;;;;5016832;28;20695;-78
2022/11/06 11:31:37;;;;;;;2.10;0.80;;;20.90;99.90;;;;;;5040819;28;20225;-79
2022/11/06 11:34:17;;;;;;;2.90;0.95;;;20.90;99.90;;;;;;5040417;28;20577;-79
2022/11/06 11:36:57;;;;;;;5.15;1.00;;;21.00;99.90;;;;;;5034007;28;20224;-78
2022/11/06 11:39:32;;;;;;;3.45;0.90;;;21.00;99.90;;;;;;5041376;28;20615;-78
2022/11/06 11:42:35;;;;;;;3.50;1.00;;;20.90;99.90;;;;;;5018813;28;20217;-78
2022/11/06 11:45:18;;;;;;;5.53;1.02;;;20.90;99.90;;;;;;4975183;28;20247;-78
2022/11/06 11:47:52;;;;;;;2.58;1.00;;;21.00;99.90;;;;;;5008208;28;20197;-78
2022/11/06 11:50:30;;;;;;;5.38;1.02;;;20.90;99.90;;;;;;5018775;28;20307;-78
2022/11/06 11:53:13;;;;;;;4.00;1.10;;;20.90;99.90;;;;;;5031062;28;20204;-78
2022/11/06 11:55:47;;;;;;;2.75;0.82;;;20.90;99.90;;;;;;5030679;28;20197;-78
2022/11/06 11:58:25;;;;;;;3.35;0.80;;;20.90;99.90;;;;;;5030471;28;20249;-78
2022/11/06 12:00:58;;;;;;;4.03;0.70;;;20.80;99.90;;;;;;5030553;28;20207;-77
2022/11/06 12:03:36;;;;;;;2.95;0.90;;;20.80;99.90;;;;;;5030814;28;20786;-77
2022/11/06 12:06:11;;;;;;;3.75;1.00;;;20.80;99.90;;;;;;5030279;28;20248;-77
2022/11/06 12:08:47;;;;;;;5.00;1.00;;;20.80;99.90;;;;;;5030846;28;20205;-77
2022/11/06 12:11:22;;;;;;;4.30;1.05;;;20.70;99.90;;;;;;5035433;28;20200;-76
2022/11/06 12:14:28;;;;;;;3.45;0.82;;;20.70;99.90;;;;;;5060880;28;20241;-77
2022/11/06 12:17:04;;;;;;;3.95;1.00;;;20.70;99.90;;;;;;5030773;28;20208;-77
2022/11/06 12:19:39;;;;;;;3.50;0.80;;;20.70;99.90;;;;;;5050542;28;20283;-77
2022/11/06 12:22:15;;;;;;;5.70;0.75;;;20.70;99.90;;;;;;5046203;28;20223;-77
2022/11/06 12:24:53;;;;;;;4.30;0.98;;;20.70;99.90;;;;;;5051086;28;20246;-77
2022/11/06 12:27:27;;;;;;;3.33;0.65;;;20.70;99.90;;;;;;5051235;28;20232;-78
2022/11/06 12:30:05;;;;;;;3.63;0.60;;;20.60;99.90;;;;;;5064074;28;20257;-78
2022/11/06 12:32:55;;;;;;;5.65;1.00;;;20.60;99.90;;;;;;5070629;28;20257;-78
2022/11/06 12:35:31;;;;;;;3.42;0.70;;;20.60;99.90;;;;;;5058313;28;20204;-79
2022/11/06 12:38:24;;;;;;;3.42;0.80;;;20.60;99.90;;;;;;5049561;28;20237;-78
2022/11/06 12:41:03;;;;;;;4.90;1.13;;;20.60;99.90;;;;;;5049487;28;20192;-78
2022/11/06 12:43:40;;;;;;;3.58;0.90;;;20.60;99.90;;;;;;5042660;28;20217;-78
2022/11/06 12:46:30;;;;;;;6.10;1.30;;;20.60;99.90;;;;;;5051431;28;20196;-78
2022/11/06 12:49:34;;;;;;;3.67;0.80;;;20.50;99.90;;;;;;5054070;28;20575;-78
2022/11/06 12:52:20;;;;;;;3.08;0.73;;;20.60;99.90;;;;;;5048309;28;20192;-78
2022/11/06 12:55:16;;;;;;;4.47;0.90;;;20.50;99.90;;;;;;5054559;28;20204;-77
2022/11/06 12:58:00;;;;;;;2.08;1.00;;;20.50;99.90;;;;;;5051780;28;20689;-78
2022/11/06 13:00:36;;;;;;;3.35;0.90;;;20.40;99.90;;;;;;5040147;28;20687;-77
2022/11/06 13:03:34;;;;;;;1.67;0.80;;;20.40;99.90;;;;;;5050836;28;20229;-77
2022/11/06 13:06:11;;;;;;;3.92;1.02;;;20.30;99.90;;;;;;5046108;28;20717;-77
2022/11/06 13:08:53;;;;;;;3.65;0.90;;;20.30;99.90;;;;;;5048072;28;20216;-77
2022/11/06 13:11:35;;;;;;;3.70;1.02;;;20.30;99.90;;;;;;5049321;28;20193;-77
2022/11/06 13:14:16;;;;;;;4.18;1.05;;;20.30;99.90;;;;;;5035076;28;20324;-77
2022/11/06 13:16:55;;;;;;;2.85;0.63;;;20.20;99.90;;;;;;5034530;28;20201;-77
2022/11/06 13:19:33;;;;;;;2.78;0.90;;;20.20;99.90;;;;;;5042656;28;20209;-78
2022/11/06 13:22:20;;;;;;;3.42;0.90;;;20.20;99.90;;;;;;5039513;28;20196;-78
2022/11/06 13:25:00;;;;;;;5.53;0.85;;;20.20;99.90;;;;;;5034840;28;20278;-77
2022/11/06 13:27:39;;;;;;;3.60;0.82;;;20.20;99.90;;;;;;5050879;28;20197;-77
2022/11/06 13:30:16;;;;;;;4.90;1.35;;;20.20;99.90;;;;;;5044824;28;20200;-77
2022/11/06 13:32:52;;;;;;;4.35;1.02;;;20.10;99.90;;;;;;5044138;28;20192;-77
2022/11/06 13:35:25;;;;;;;4.72;0.82;;;20.10;99.90;;;;;;5051449;28;20216;-77
2022/11/06 13:37:58;;;;;;;4.88;1.00;;;20.10;99.90;;;;;;5041541;28;20300;-77
2022/11/06 13:40:36;;;;;;;5.72;1.13;;;20.10;99.90;;;;;;5037768;28;20210;-77
2022/11/06 13:43:12;;;;;;;5.35;1.20;;;20.10;99.90;;;;;;5048087;28;20219;-77
2022/11/06 13:45:53;;;;;;;5.13;0.90;;;20.10;99.90;;;;;;5049873;28;20231;-77
2022/11/06 13:48:38;;;;;;;3.75;0.90;;;20.10;99.90;;;;;;5051032;28;20196;-77
2022/11/06 13:51:19;;;;;;;4.38;0.80;;;20.00;99.90;;;;;;5050442;28;20203;-77
2022/11/06 13:53:56;;;;;;;4.70;0.90;;;20.00;99.90;;;;;;5054202;28;20196;-78
2022/11/06 13:56:59;;;;;;;5.00;0.90;;;20.00;99.90;;;;;;5047445;28;20262;-77
2022/11/06 14:00:13;;;;;;;4.80;0.98;;;20.00;99.90;;;;;;5046535;28;20204;-77
2022/11/06 14:03:21;;;;;;;4.40;0.98;;;20.00;99.90;;;;;;4941000;29;20667;-77
2022/11/06 14:06:03;;;;;;;4.18;0.80;;;19.90;99.90;;;;;;4949917;29;20282;-77
2022/11/06 14:08:37;;;;;;;2.58;0.90;;;20.00;99.90;;;;;;5022706;28;20228;-77
2022/11/06 14:11:14;;;;;;;3.42;0.90;;;20.00;99.90;;;;;;5050470;28;20199;-77
2022/11/06 14:14:00;;;;;;;6.32;0.90;;;19.90;99.90;;;;;;5039994;28;20226;-77
2022/11/06 14:16:33;;;;;;;3.33;0.77;;;19.90;99.90;;;;;;5049777;28;20231;-77
2022/11/06 14:19:09;;;;;;;4.00;0.90;;;19.90;99.90;;;;;;5049460;28;20197;-78
2022/11/06 14:21:49;;;;;;;3.30;0.77;;;19.90;99.90;;;;;;5045844;28;20245;-78
2022/11/06 14:24:33;;;;;;;3.28;0.85;;;19.90;99.90;;;;;;5024117;28;20221;-78
2022/11/06 14:27:05;;;;;;;4.28;0.90;;;19.80;99.90;;;;;;5046614;28;20200;-78
2022/11/06 14:30:06;;;;;;;8.30;1.23;;;19.80;99.90;;;;;;5053024;28;20216;-78
2022/11/06 14:32:47;;;;;;;2.05;0.60;;;19.80;99.90;;;;;;5031735;28;20255;-78
2022/11/06 14:35:52;;;;;;;7.40;1.55;;;19.80;99.90;;;;;;5046919;28;20200;-78
2022/11/06 14:38:41;;;;;;;3.33;0.80;;;19.80;99.90;;;;;;5024392;28;20205;-78
2022/11/06 14:41:50;;;;;;;2.50;0.93;;;19.80;99.90;;;;;;5033119;28;20676;-78
2022/11/06 14:44:49;;;;;;;4.53;1.00;;;19.80;99.90;;;;;;5031341;28;20247;-78
2022/11/06 14:47:42;;;;;;;4.43;1.08;;;19.80;99.90;;;;;;5045207;28;20211;-78
2022/11/06 14:50:27;;;;;;;5.35;1.20;;;19.70;99.90;;;;;;5045024;28;20199;-78
2022/11/06 14:53:02;;;;;;;3.92;1.20;;;19.70;99.90;;;;;;5037771;28;20558;-78
2022/11/06 14:55:36;;;;;;;5.28;1.13;;;19.70;99.90;;;;;;5052456;28;20235;-78
2022/11/06 14:58:21;;;;;;;4.75;1.10;;;19.70;99.90;;;;;;5031549;28;20196;-78
2022/11/06 15:00:54;;;;;;;2.88;0.70;;;19.70;99.90;;;;;;5048042;28;20203;-78
2022/11/06 15:03:35;;;;;;;2.90;0.95;;;19.60;99.90;;;;;;5035675;28;20201;-77
2022/11/06 15:06:23;;;;;;;5.97;1.10;;;19.70;99.90;;;;;;5048445;28;20231;-78
2022/11/06 15:09:03;;;;;;;3.17;0.80;;;19.60;99.90;;;;;;5044187;28;20710;-78
2022/11/06 15:11:58;;;;;;;3.13;0.75;;;19.60;99.90;;;;;;5043101;28;20212;-77
2022/11/06 15:15:00;;;;;;;4.43;1.10;;;19.60;99.90;;;;;;5043842;28;20230;-77
2022/11/06 15:17:36;;;;;;;4.35;1.17;;;19.50;99.90;;;;;;5051067;28;20192;-77
2022/11/06 15:20:29;;;;;;;2.78;0.80;;;19.50;99.90;;;;;;5050673;28;20195;-78
2022/11/06 15:23:18;;;;;;;2.75;0.90;;;19.50;99.90;;;;;;5037760;28;20197;-79
2022/11/06 15:26:05;;;;;;;7.05;1.08;;;19.40;99.90;;;;;;5030964;28;20239;-78
2022/11/06 15:28:47;;;;;;;3.22;0.90;;;19.40;99.90;;;;;;5047752;28;20284;-79
2022/11/06 15:31:20;;;;;;;4.95;0.95;;;19.40;99.90;;;;;;5036317;28;20204;-79
2022/11/06 15:33:57;;;;;;;3.25;0.90;;;19.30;99.90;;;;;;5048671;28;20199;-79
2022/11/06 15:36:34;;;;;;;3.63;0.80;;;19.30;99.90;;;;;;5041607;28;20292;-79
2022/11/06 15:39:25;;;;;;;2.10;0.82;;;19.30;99.90;;;;;;5044585;28;20562;-78
2022/11/06 15:41:56;;;;;;;2.08;0.73;;;19.30;99.90;;;;;;5032561;28;20627;-78
2022/11/06 15:44:28;;;;;;;2.65;0.90;;;19.20;99.90;;;;;;5033933;28;20197;-78
2022/11/06 15:47:01;;;;;;;3.03;1.00;;;19.20;99.90;;;;;;5045930;28;20217;-78
2022/11/06 15:49:32;;;;;;;4.78;1.10;;;19.20;99.90;;;;;;5048462;28;20667;-78
2022/11/06 15:52:05;;;;;;;3.92;1.00;;;19.10;99.90;;;;;;5036267;28;20546;-78
2022/11/06 15:54:39;;;;;;;2.88;1.20;;;19.20;99.90;;;;;;5048048;28;20276;-78
2022/11/06 15:57:20;;;;;;;2.53;1.10;;;19.10;99.90;;;;;;5041619;28;20266;-77
2022/11/06 15:59:51;;;;;;;4.57;1.10;;;19.10;99.90;;;;;;5039197;28;20228;-77
2022/11/06 16:02:23;;;;;;;5.13;1.40;;;19.10;99.90;;;;;;5035415;28;20213;-77
2022/11/06 16:04:54;;;;;;;3.53;1.23;;;19.10;99.90;;;;;;5034301;28;20224;-77
2022/11/06 16:07:28;;;;;;;4.00;1.13;;;19.10;99.90;;;;;;5042105;28;20223;-77
2022/11/06 16:09:59;;;;;;;3.83;1.10;;;19.10;99.90;;;;;;5035784;28;20200;-78
2022/11/06 16:12:30;;;;;;;2.72;1.13;;;19.00;99.90;;;;;;5052120;28;20193;-77
2022/11/06 16:15:01;;;;;;;4.80;1.08;;;19.00;99.90;;;;;;5044713;28;20201;-77
2022/11/06 16:17:31;;;;;;;2.88;1.20;;;19.00;99.90;;;;;;5029441;28;20209;-78
2022/11/06 16:20:05;;;;;;;4.32;1.20;;;19.00;99.90;;;;;;5029624;28;20247;-78
2022/11/06 16:22:37;;;;;;;5.60;1.27;;;19.00;99.90;;;;;;5029222;28;20193;-78
2022/11/06 16:25:09;;;;;;;3.42;0.95;;;19.00;99.90;;;;;;5030097;28;20326;-77